This is the latest recevied weather packets stored in our database for station/object OE3MHU-12. If no packets are shown the sender has not sent any weather packets the latest 10 day(s).
| Time | Temp. | Humidity | Pressure | Rain* | Wind** | Luminosity | Snow |
|---|---|---|---|---|---|---|---|
| 1777962337 | 14.44° C | 63% | 1007.7 hPa | 0 mm | - | - | - |
| 1777960537 | 11.67° C | 72% | 1007.9 hPa | 0 mm | - | - | - |
| 1777958737 | 8.33° C | 80% | 1007.8 hPa | 0 mm | - | - | - |
| 1777956937 | 7.78° C | 81% | 1007.9 hPa | 0 mm | - | - | - |
| 1777955137 | 7.22° C | 80% | 1007.9 hPa | 0 mm | - | - | - |
| 1777953337 | 7.78° C | 79% | 1007.9 hPa | 0 mm | - | - | - |
| 1777951537 | 8.33° C | 78% | 1008 hPa | 0 mm | - | - | - |
| 1777949737 | 8.33° C | 78% | 1007.9 hPa | 0 mm | - | - | - |
| 1777946138 | 8.89° C | 75% | 1008.4 hPa | 0 mm | - | - | - |
| 1777944338 | 9.44° C | 74% | 1008.5 hPa | 0 mm | - | - | - |
| 1777942538 | 9.44° C | 73% | 1008.8 hPa | 0 mm | - | - | - |
| 1777940738 | 10° C | 72% | 1009 hPa | 0 mm | - | - | - |
| 1777938938 | 10.56° C | 71% | 1009.3 hPa | 0 mm | - | - | - |
| 1777937138 | 11.11° C | 68% | 1009.4 hPa | 0 mm | - | - | - |
| 1777935338 | 11.67° C | 67% | 1009.7 hPa | 0 mm | - | - | - |
| 1777933538 | 12.22° C | 65% | 1009.8 hPa | 0 mm | - | - | - |
| 1777931738 | 13.33° C | 63% | 1009.8 hPa | 0 mm | - | - | - |
| 1777929938 | 14.44° C | 58% | 1009.6 hPa | 0 mm | - | - | - |
| 1777928138 | 16.11° C | 52% | 1009.7 hPa | 0 mm | - | - | - |
| 1777926339 | 17.22° C | 48% | 1009.6 hPa | 0 mm | - | - | - |
| 1777924539 | 18.33° C | 44% | 1009.5 hPa | 0 mm | - | - | - |
| 1777922739 | 18.89° C | 44% | 1009.6 hPa | 0 mm | - | - | - |
| 1777920939 | 19.44° C | 44% | 1009.8 hPa | 0 mm | - | - | - |
| 1777919139 | 20.56° C | 43% | 1009.7 hPa | 0 mm | - | - | - |
| 1777917339 | 21.67° C | 41% | 1009.6 hPa | 0 mm | - | - | - |
* Rain latest hour (hover to see other rain measurements)
** Current wind speed in m/s (hover to see current wind gust speed)